Time;durP1;ratioP1;P1;durP2;ratioP2;P2;SDS_P1;SDS_P2;PMS_P1;PMS_P2;Temp;Humidity;BMP_temperature;BMP_pressure;BME280_temperature;BME280_humidity;BME280_pressure;Samples;Min_cycle;Max_cycle;Signal;HPM_P1;HPM_P2
2022/01/23 00:01:43;;;;;;;30.23;18.95;;;5.80;99.90;;;;;;4175767;28;20045;-77
2022/01/23 00:03:47;;;;;;;31.52;19.67;;;5.80;99.90;;;;;;4186595;28;20144;-78
2022/01/23 00:05:52;;;;;;;30.42;18.55;;;5.70;99.90;;;;;;4179332;28;20056;-78
2022/01/23 00:07:55;;;;;;;33.10;18.27;;;5.70;99.90;;;;;;4190268;28;20052;-78
2022/01/23 00:09:56;;;;;;;32.20;19.13;;;5.70;99.90;;;;;;4190727;28;20079;-79
2022/01/23 00:12:10;;;;;;;33.30;19.13;;;5.70;99.90;;;;;;4185560;28;20090;-79
2022/01/23 00:18:52;;;;;;;26.77;16.23;;;5.70;99.90;;;;;;4179836;28;20080;-77
2022/01/23 00:20:55;;;;;;;30.10;18.35;;;5.70;99.90;;;;;;4172513;28;20056;-79
2022/01/23 00:23:00;;;;;;;29.83;17.35;;;5.70;99.90;;;;;;4179034;28;20589;-79
2022/01/23 00:32:15;;;;;;;30.33;17.48;;;5.60;99.90;;;;;;4163846;28;20129;-78
2022/01/23 00:34:20;;;;;;;30.05;16.67;;;5.60;99.90;;;;;;4179046;28;20343;-80
2022/01/23 00:36:23;;;;;;;;;;;5.60;99.90;;;;;;4176921;28;20057;-79
2022/01/23 00:38:25;;;;;;;32.53;18.48;;;5.60;99.90;;;;;;4178890;28;19970;-79
2022/01/23 00:40:29;;;;;;;30.88;17.00;;;5.60;99.90;;;;;;4175552;28;20148;-77
2022/01/23 00:42:31;;;;;;;31.85;18.00;;;5.60;99.90;;;;;;4174725;28;20552;-81
2022/01/23 00:44:36;;;;;;;29.67;17.63;;;5.60;99.90;;;;;;4177762;28;20049;-80
2022/01/23 00:46:40;;;;;;;34.25;17.38;;;5.60;99.90;;;;;;4178378;28;20055;-77
2022/01/23 00:49:01;;;;;;;28.73;17.33;;;5.50;99.90;;;;;;4175824;28;20106;-77
2022/01/23 00:51:04;;;;;;;30.73;17.15;;;5.50;99.90;;;;;;4177691;28;20052;-78
2022/01/23 00:53:10;;;;;;;36.03;20.25;;;5.50;99.90;;;;;;4174282;28;20069;-77
2022/01/23 00:55:12;;;;;;;37.58;19.17;;;5.50;99.90;;;;;;4173910;28;20064;-78
2022/01/23 00:57:14;;;;;;;28.58;17.92;;;5.50;99.90;;;;;;4160928;28;20586;-78
2022/01/23 00:59:16;;;;;;;38.10;18.73;;;5.40;99.90;;;;;;4160753;28;20433;-77
2022/01/23 01:01:19;;;;;;;32.03;18.33;;;5.40;99.90;;;;;;4175417;28;20436;-78
2022/01/23 01:03:22;;;;;;;29.95;18.02;;;5.50;99.90;;;;;;4176024;28;20447;-78
2022/01/23 01:05:31;;;;;;;34.85;18.42;;;5.40;99.90;;;;;;4176461;28;20045;-81
2022/01/23 01:07:33;;;;;;;28.98;17.58;;;5.40;99.90;;;;;;4174415;28;20139;-79
2022/01/23 01:09:35;;;;;;;32.67;18.95;;;5.40;99.90;;;;;;4175430;28;20041;-79
2022/01/23 01:14:18;;;;;;;35.00;19.35;;;5.40;99.90;;;;;;4178531;28;20536;-79
2022/01/23 01:32:47;;;;;;;24.42;15.35;;;5.40;99.90;;;;;;4163251;28;20401;-81
2022/01/23 01:35:01;;;;;;;26.60;15.32;;;5.40;99.90;;;;;;4162039;28;20476;-79
2022/01/23 01:37:04;;;;;;;22.60;14.77;;;5.40;99.90;;;;;;4161599;28;20053;-78
2022/01/23 01:39:20;;;;;;;24.05;16.00;;;5.40;99.90;;;;;;4176970;28;20080;-80
2022/01/23 01:41:26;;;;;;;26.65;15.57;;;5.40;99.90;;;;;;4161678;28;20152;-80
2022/01/23 01:43:30;;;;;;;24.25;14.77;;;5.40;99.90;;;;;;4176010;28;20562;-77
2022/01/23 01:45:35;;;;;;;26.48;15.95;;;5.40;99.90;;;;;;4177932;28;20079;-80
2022/01/23 01:47:38;;;;;;;27.20;14.88;;;5.40;99.90;;;;;;4186352;28;20044;-80
2022/01/23 01:49:41;;;;;;;23.98;14.57;;;5.40;99.90;;;;;;4184082;28;20427;-81
2022/01/23 01:51:44;;;;;;;26.13;14.70;;;5.40;99.90;;;;;;4177859;28;20055;-78
2022/01/23 01:53:57;;;;;;;19.88;13.07;;;5.40;99.90;;;;;;4177653;28;20056;-79
2022/01/23 01:55:59;;;;;;;23.67;15.25;;;5.30;99.90;;;;;;4178011;28;20819;-79
2022/01/23 01:58:03;;;;;;;19.98;12.85;;;5.40;99.90;;;;;;4175553;28;20076;-80
2022/01/23 02:12:57;;;;;;;23.13;12.90;;;5.30;99.90;;;;;;4162259;28;20432;-80
2022/01/23 02:14:13;;;;;;;18.83;11.55;;;5.30;99.90;;;;;;4162852;28;20052;-79
2022/01/23 02:54:25;;;;;;;18.85;11.55;;;5.40;99.90;;;;;;4161069;28;20088;-81
2022/01/23 02:56:34;;;;;;;19.63;11.52;;;5.30;99.90;;;;;;4176226;28;20068;-79
2022/01/23 02:58:48;;;;;;;18.25;11.77;;;5.30;99.90;;;;;;4171836;28;20133;-80
2022/01/23 03:01:08;;;;;;;18.35;10.82;;;5.30;99.90;;;;;;4168821;28;20055;-79
2022/01/23 03:03:13;;;;;;;14.15;10.02;;;5.30;99.90;;;;;;4173453;28;20077;-79
2022/01/23 03:05:34;;;;;;;16.33;11.55;;;5.30;99.90;;;;;;4160422;28;20062;-79
2022/01/23 03:28:16;;;;;;;20.88;12.20;;;5.30;99.90;;;;;;4169947;28;20132;-83
2022/01/23 03:30:25;;;;;;;18.70;12.52;;;5.30;99.90;;;;;;4161792;28;20054;-79
2022/01/23 03:32:41;;;;;;;16.75;11.63;;;5.30;99.90;;;;;;4167177;28;20052;-81
2022/01/23 03:34:42;;;;;;;;;;;5.30;99.90;;;;;;4161115;28;20056;-81
2022/01/23 03:36:44;;;;;;;21.83;12.02;;;5.30;99.90;;;;;;4159874;28;19979;-80
2022/01/23 03:38:46;;;;;;;21.95;13.13;;;5.30;99.90;;;;;;4175437;28;20125;-81
2022/01/23 03:40:49;;;;;;;19.08;11.90;;;5.30;99.90;;;;;;4175036;28;20045;-81
2022/01/23 03:42:57;;;;;;;21.73;13.38;;;5.30;99.90;;;;;;4160901;28;20073;-81
2022/01/23 03:45:22;;;;;;;19.98;13.13;;;5.30;99.90;;;;;;4160912;28;20049;-81
2022/01/23 03:47:40;;;;;;;20.33;13.45;;;5.30;99.90;;;;;;4163783;28;20040;-81
2022/01/23 03:49:42;;;;;;;18.02;11.65;;;5.30;99.90;;;;;;4167313;28;20088;-79
2022/01/23 03:51:43;;;;;;;21.95;13.02;;;5.30;99.90;;;;;;4164161;28;20052;-79
2022/01/23 03:53:45;;;;;;;20.42;14.57;;;5.30;99.90;;;;;;4170710;28;20480;-82
2022/01/23 03:55:50;;;;;;;17.95;12.23;;;5.30;99.90;;;;;;4174767;28;20041;-79
2022/01/23 03:57:52;;;;;;;18.13;12.52;;;5.30;99.90;;;;;;4179710;28;20140;-81
2022/01/23 03:59:54;;;;;;;22.70;13.38;;;5.30;99.90;;;;;;4172432;28;20057;-82
2022/01/23 04:01:56;;;;;;;23.70;14.05;;;5.30;99.90;;;;;;4179674;28;20061;-79
2022/01/23 04:04:02;;;;;;;23.92;13.40;;;5.30;99.90;;;;;;4178423;28;20060;-79
2022/01/23 04:06:04;;;;;;;23.73;14.10;;;5.30;99.90;;;;;;4175890;28;20071;-79
2022/01/23 04:08:06;;;;;;;25.98;14.77;;;5.30;99.90;;;;;;4179239;28;20057;-78
2022/01/23 04:10:09;;;;;;;21.73;13.73;;;5.40;99.90;;;;;;4179325;28;20072;-80
2022/01/23 04:12:41;;;;;;;23.05;14.90;;;5.30;99.90;;;;;;4177118;28;20140;-79
2022/01/23 04:14:50;;;;;;;23.20;14.77;;;5.30;99.90;;;;;;4175934;28;20575;-80
2022/01/23 04:31:42;;;;;;;22.17;15.80;;;5.40;99.90;;;;;;4177680;28;20076;-80
2022/01/23 05:00:46;;;;;;;19.98;14.77;;;5.30;99.90;;;;;;4164703;28;20046;-81
2022/01/23 05:04:58;;;;;;;25.63;14.40;;;5.30;99.90;;;;;;4172782;28;20045;-79
2022/01/23 05:07:07;;;;;;;20.90;13.85;;;5.30;99.90;;;;;;4178475;28;20108;-80
2022/01/23 05:09:11;;;;;;;23.13;14.05;;;5.30;99.90;;;;;;4178418;28;20104;-79
2022/01/23 05:11:13;;;;;;;22.17;13.25;;;5.30;99.90;;;;;;4175964;28;20049;-79
2022/01/23 05:13:15;;;;;;;20.75;14.23;;;5.30;99.90;;;;;;4176352;28;20048;-81
2022/01/23 05:15:18;;;;;;;19.08;13.20;;;5.30;99.90;;;;;;4165455;28;20048;-79
2022/01/23 05:17:20;;;;;;;21.83;14.25;;;5.30;99.90;;;;;;4176129;28;20073;-80
2022/01/23 05:19:22;;;;;;;22.75;14.10;;;5.30;99.90;;;;;;4178220;28;20080;-81
2022/01/23 05:23:34;;;;;;;19.65;13.98;;;5.30;99.90;;;;;;4163227;28;20107;-80
2022/01/23 05:25:37;;;;;;;27.27;14.35;;;5.20;99.90;;;;;;4161999;28;20516;-78
2022/01/23 05:27:40;;;;;;;22.75;15.15;;;5.20;99.90;;;;;;4161639;28;20512;-80
2022/01/23 05:29:42;;;;;;;21.40;14.70;;;5.20;99.90;;;;;;4168203;28;20077;-79
2022/01/23 05:31:44;;;;;;;20.15;14.40;;;5.20;99.90;;;;;;4175581;28;20119;-79
2022/01/23 05:33:46;;;;;;;23.67;14.50;;;5.20;99.90;;;;;;4175444;28;20094;-81
2022/01/23 05:35:47;;;;;;;22.00;14.48;;;5.20;99.90;;;;;;4161979;28;20050;-81
2022/01/23 05:37:50;;;;;;;21.90;14.93;;;5.20;99.90;;;;;;4161944;28;20099;-81
2022/01/23 05:39:52;;;;;;;19.20;13.77;;;5.20;99.90;;;;;;4166560;28;20053;-81
2022/01/23 05:42:04;;;;;;;21.02;14.35;;;5.20;99.90;;;;;;4168329;28;20080;-79
2022/01/23 05:44:06;;;;;;;23.50;14.02;;;5.20;99.90;;;;;;4162868;28;20051;-80
2022/01/23 05:46:08;;;;;;;31.65;14.77;;;5.20;99.90;;;;;;4175827;28;20060;-81
2022/01/23 05:48:11;;;;;;;20.48;13.63;;;5.20;99.90;;;;;;4190694;28;20098;-81
2022/01/23 05:50:13;;;;;;;22.23;15.25;;;5.20;99.90;;;;;;4181036;28;20124;-81
2022/01/23 05:52:15;;;;;;;26.17;14.15;;;5.20;99.90;;;;;;4175411;28;20571;-80
2022/01/23 05:54:17;;;;;;;23.77;14.77;;;5.20;99.90;;;;;;4173561;28;20155;-79
2022/01/23 05:56:19;;;;;;;19.30;14.45;;;5.10;99.90;;;;;;4178102;28;20111;-79
2022/01/23 05:58:21;;;;;;;18.98;14.60;;;5.20;99.90;;;;;;4172312;28;20432;-79
2022/01/23 06:00:23;;;;;;;19.33;14.25;;;5.20;99.90;;;;;;4162602;28;20080;-81
2022/01/23 06:02:25;;;;;;;24.48;15.35;;;5.10;99.90;;;;;;4161417;28;20045;-79
2022/01/23 06:04:28;;;;;;;19.92;14.00;;;5.10;99.90;;;;;;4159791;28;20489;-80
2022/01/23 06:06:30;;;;;;;25.20;14.60;;;5.10;99.90;;;;;;4177022;28;20084;-81
2022/01/23 06:08:35;;;;;;;26.35;15.82;;;5.10;99.90;;;;;;4177833;28;20045;-82
2022/01/23 06:10:53;;;;;;;20.27;15.02;;;5.10;99.90;;;;;;4177377;28;20144;-80
2022/01/23 06:12:55;;;;;;;25.35;15.88;;;5.10;99.90;;;;;;4167296;28;20107;-81
2022/01/23 06:14:56;;;;;;;28.73;15.98;;;5.10;99.90;;;;;;4176742;28;20538;-79
2022/01/23 06:16:58;;;;;;;26.58;15.63;;;5.10;99.90;;;;;;4177771;28;20077;-79
2022/01/23 06:19:00;;;;;;;24.55;15.88;;;5.10;99.90;;;;;;4178322;28;20049;-80
2022/01/23 06:21:02;;;;;;;22.17;15.68;;;5.10;99.90;;;;;;4175444;28;20072;-81
2022/01/23 06:23:04;;;;;;;22.67;16.27;;;5.10;99.90;;;;;;4176908;28;20080;-81
2022/01/23 06:25:09;;;;;;;23.27;16.38;;;5.00;99.90;;;;;;4160314;28;20057;-80
2022/01/23 06:27:11;;;;;;;25.75;16.83;;;5.10;99.90;;;;;;4162052;28;20590;-80
2022/01/23 06:29:16;;;;;;;26.05;16.17;;;5.00;99.90;;;;;;4161091;28;20465;-81
2022/01/23 06:31:17;;;;;;;25.10;17.42;;;5.10;99.90;;;;;;4161008;28;20062;-81
2022/01/23 06:33:20;;;;;;;28.70;16.98;;;5.00;99.90;;;;;;4161320;28;20064;-81
2022/01/23 06:35:22;;;;;;;23.33;15.70;;;5.00;99.90;;;;;;4160604;28;20129;-80
2022/01/23 06:37:24;;;;;;;22.17;16.20;;;5.00;99.90;;;;;;4174506;28;20041;-80
2022/01/23 06:39:26;;;;;;;25.45;17.27;;;5.00;99.90;;;;;;4186381;28;20113;-81
2022/01/23 06:41:28;;;;;;;29.77;15.93;;;5.00;99.90;;;;;;4160710;28;20057;-80
2022/01/23 06:43:30;;;;;;;44.70;24.05;;;5.00;99.90;;;;;;4161089;28;20161;-81
2022/01/23 06:45:32;;;;;;;31.02;18.92;;;5.00;99.90;;;;;;4172518;28;20543;-80
2022/01/23 06:47:34;;;;;;;23.55;16.80;;;5.00;99.90;;;;;;4175864;28;20088;-79
2022/01/23 06:49:36;;;;;;;22.05;15.05;;;5.00;99.90;;;;;;4160903;28;20057;-81
2022/01/23 06:51:39;;;;;;;29.52;20.45;;;5.00;99.90;;;;;;4161112;28;20080;-80
2022/01/23 06:53:40;;;;;;;24.15;17.13;;;4.90;99.90;;;;;;4165589;28;20489;-80
2022/01/23 06:55:42;;;;;;;21.90;16.45;;;5.00;99.90;;;;;;4169101;28;20076;-81
2022/01/23 06:57:44;;;;;;;24.30;17.35;;;4.90;99.90;;;;;;4160711;28;20132;-82
2022/01/23 06:59:46;;;;;;;24.13;17.77;;;4.90;99.90;;;;;;4160984;28;20461;-82
2022/01/23 07:01:48;;;;;;;25.15;16.73;;;4.90;99.90;;;;;;4161401;28;20088;-80
2022/01/23 07:03:54;;;;;;;23.27;17.00;;;4.90;99.90;;;;;;4160758;28;20128;-80
2022/01/23 07:05:56;;;;;;;21.80;15.90;;;4.90;99.90;;;;;;4160981;28;20251;-82
2022/01/23 07:07:58;;;;;;;27.15;17.30;;;4.90;99.90;;;;;;4161094;28;20046;-85
2022/01/23 07:10:00;;;;;;;22.77;17.10;;;4.90;99.90;;;;;;4165169;28;20053;-79
2022/01/23 07:12:02;;;;;;;27.63;17.67;;;4.90;99.90;;;;;;4161854;28;20524;-80
2022/01/23 07:14:05;;;;;;;28.33;17.70;;;4.90;99.90;;;;;;4161069;28;20050;-79
2022/01/23 07:16:07;;;;;;;22.65;16.73;;;4.90;99.90;;;;;;4160594;28;20382;-81
2022/01/23 07:18:10;;;;;;;27.27;18.58;;;4.90;99.90;;;;;;4168459;28;20065;-79
2022/01/23 07:20:12;;;;;;;29.92;19.30;;;4.90;99.90;;;;;;4177770;28;20055;-81
2022/01/23 07:22:14;;;;;;;35.65;21.58;;;4.90;99.90;;;;;;4176964;28;20052;-80
2022/01/23 07:24:16;;;;;;;31.10;19.23;;;4.90;99.90;;;;;;4169231;28;20080;-81
2022/01/23 07:26:20;;;;;;;25.23;17.98;;;4.90;99.90;;;;;;4159458;28;20072;-80
2022/01/23 07:28:31;;;;;;;27.73;18.17;;;4.90;99.90;;;;;;4172933;28;20045;-81
2022/01/23 07:30:41;;;;;;;25.67;19.08;;;4.90;99.90;;;;;;4166609;28;20128;-88
2022/01/23 07:32:43;;;;;;;27.88;18.40;;;4.90;99.90;;;;;;4164915;28;20073;-81
2022/01/23 07:34:45;;;;;;;24.95;17.92;;;4.90;99.90;;;;;;4164765;28;20616;-77
2022/01/23 07:36:47;;;;;;;29.25;19.00;;;4.90;99.90;;;;;;4172552;28;20053;-81
2022/01/23 07:38:49;;;;;;;28.08;19.60;;;4.90;99.90;;;;;;4176444;28;20053;-79
2022/01/23 07:40:51;;;;;;;34.45;19.95;;;4.90;99.90;;;;;;4180261;28;20044;-78
2022/01/23 07:42:53;;;;;;;27.67;19.38;;;4.90;99.90;;;;;;4173840;28;20075;-78
2022/01/23 07:44:55;;;;;;;25.88;18.58;;;4.90;99.90;;;;;;4172976;28;20053;-77
2022/01/23 07:46:57;;;;;;;32.33;21.60;;;4.90;99.90;;;;;;4168962;28;20049;-79
2022/01/23 07:48:59;;;;;;;43.70;26.88;;;4.90;99.90;;;;;;4167120;28;20069;-78
2022/01/23 07:51:01;;;;;;;36.38;23.65;;;4.90;99.90;;;;;;4164397;28;20124;-78
2022/01/23 07:53:04;;;;;;;32.17;22.60;;;4.90;99.90;;;;;;4174522;28;20045;-78
2022/01/23 07:55:10;;;;;;;30.70;21.45;;;4.90;99.90;;;;;;4166230;28;20104;-80
2022/01/23 07:57:11;;;;;;;41.33;23.70;;;4.90;99.90;;;;;;4174860;28;20496;-79
2022/01/23 07:59:13;;;;;;;28.55;20.02;;;4.90;99.90;;;;;;4171556;28;20044;-80
2022/01/23 08:01:15;;;;;;;139.07;54.92;;;4.90;99.90;;;;;;4168734;28;20049;-78
2022/01/23 08:03:17;;;;;;;28.60;19.75;;;4.90;99.90;;;;;;4166254;28;20335;-79
2022/01/23 08:05:19;;;;;;;25.13;17.85;;;4.90;99.90;;;;;;4169244;28;20053;-78
2022/01/23 08:09:35;;;;;;;35.80;21.80;;;4.80;99.90;;;;;;4167082;28;20049;-78
2022/01/23 08:11:43;;;;;;;45.42;23.45;;;4.80;99.90;;;;;;4168346;28;20137;-78
2022/01/23 08:13:45;;;;;;;37.10;20.65;;;4.90;99.90;;;;;;4173824;28;20115;-83
2022/01/23 08:15:48;;;;;;;25.45;18.30;;;4.80;99.90;;;;;;4164794;28;20087;-79
2022/01/23 08:17:50;;;;;;;26.13;18.60;;;4.90;99.90;;;;;;4172245;28;20131;-82
2022/01/23 08:19:56;;;;;;;24.67;17.92;;;4.90;99.90;;;;;;4173792;28;20127;-79
2022/01/23 08:21:58;;;;;;;26.30;18.55;;;4.90;99.90;;;;;;4179374;28;20452;-81
2022/01/23 08:24:00;;;;;;;30.40;19.10;;;4.90;99.90;;;;;;4172360;28;20686;-78
2022/01/23 08:26:02;;;;;;;29.63;19.50;;;4.90;99.90;;;;;;4171969;28;20428;-78
2022/01/23 08:28:04;;;;;;;27.27;18.15;;;4.90;99.90;;;;;;4172293;28;20053;-80
2022/01/23 08:30:06;;;;;;;26.02;17.42;;;4.90;99.90;;;;;;4169744;28;20053;-79
2022/01/23 08:32:09;;;;;;;26.00;17.80;;;4.90;99.90;;;;;;4165849;28;20456;-78
2022/01/23 08:34:12;;;;;;;23.60;18.20;;;4.90;99.90;;;;;;4176908;28;20041;-78
2022/01/23 08:36:15;;;;;;;24.20;17.50;;;4.90;99.90;;;;;;4168471;28;20072;-77
2022/01/23 08:38:17;;;;;;;27.85;18.67;;;4.90;99.90;;;;;;4174766;28;20158;-79
2022/01/23 08:40:23;;;;;;;25.50;18.45;;;4.90;99.90;;;;;;4170451;28;20061;-78
2022/01/23 08:42:25;;;;;;;28.35;18.77;;;4.90;99.90;;;;;;4168401;28;20085;-78
2022/01/23 08:44:29;;;;;;;28.77;18.63;;;4.90;99.90;;;;;;4172714;28;20049;-78
2022/01/23 08:46:31;;;;;;;26.45;18.73;;;4.90;99.90;;;;;;4176311;28;20516;-78
2022/01/23 08:48:33;;;;;;;26.92;19.20;;;4.90;99.90;;;;;;4168458;28;20669;-78
2022/01/23 08:50:35;;;;;;;30.27;18.55;;;4.90;99.90;;;;;;4177422;28;20085;-79
2022/01/23 08:52:37;;;;;;;28.23;18.90;;;4.90;99.90;;;;;;4162628;28;20076;-78
2022/01/23 08:54:39;;;;;;;24.63;18.55;;;4.90;99.90;;;;;;4166476;28;20460;-79
2022/01/23 08:56:42;;;;;;;25.02;18.75;;;4.90;99.90;;;;;;4168861;28;20069;-79
2022/01/23 08:58:44;;;;;;;27.27;20.02;;;4.90;99.90;;;;;;4162401;28;20041;-78
2022/01/23 09:00:47;;;;;;;27.83;19.00;;;4.90;99.90;;;;;;4171841;28;20057;-78
2022/01/23 09:02:49;;;;;;;26.58;18.63;;;4.90;99.90;;;;;;4173616;28;20080;-78
2022/01/23 09:04:51;;;;;;;31.52;17.83;;;5.00;99.90;;;;;;4161799;28;20088;-78
2022/01/23 09:06:53;;;;;;;32.15;20.83;;;5.00;99.90;;;;;;4171320;28;20063;-79
2022/01/23 09:08:57;;;;;;;28.77;19.65;;;5.00;99.90;;;;;;4162501;28;20072;-78
2022/01/23 09:10:59;;;;;;;27.50;20.17;;;5.00;99.90;;;;;;4166429;28;20053;-78
2022/01/23 09:15:03;;;;;;;29.85;20.02;;;5.00;99.90;;;;;;4165969;28;20097;-78
2022/01/23 09:17:06;;;;;;;29.88;19.67;;;5.00;99.90;;;;;;4170153;28;20245;-78
2022/01/23 09:19:09;;;;;;;26.30;19.08;;;5.00;99.90;;;;;;4167538;28;20697;-78
2022/01/23 09:21:11;;;;;;;31.10;19.83;;;5.00;99.90;;;;;;4170884;28;20463;-78
2022/01/23 09:23:13;;;;;;;29.00;20.50;;;5.00;99.90;;;;;;4173513;28;20049;-78
2022/01/23 09:25:15;;;;;;;31.70;20.40;;;5.00;99.90;;;;;;4163956;28;20056;-79
2022/01/23 09:27:20;;;;;;;27.17;19.52;;;5.10;99.90;;;;;;4168419;28;20045;-78
2022/01/23 09:29:33;;;;;;;28.45;19.48;;;5.10;99.90;;;;;;4168815;28;20071;-78
2022/01/23 09:31:48;;;;;;;30.67;21.25;;;5.10;99.90;;;;;;4171969;28;20588;-77
2022/01/23 09:33:51;;;;;;;36.15;23.25;;;5.10;99.90;;;;;;4166829;28;20054;-84
2022/01/23 09:35:53;;;;;;;28.60;20.58;;;5.20;99.90;;;;;;4178566;28;20540;-77
2022/01/23 09:37:55;;;;;;;32.35;21.25;;;5.20;99.90;;;;;;4171566;28;20057;-78
2022/01/23 09:39:58;;;;;;;35.60;21.42;;;5.10;99.90;;;;;;4162297;28;20088;-78
2022/01/23 09:42:26;;;;;;;32.00;22.58;;;5.10;99.90;;;;;;4165973;28;20524;-79
2022/01/23 09:44:57;;;;;;;31.80;22.17;;;5.20;99.90;;;;;;4164368;28;20057;-86
2022/01/23 09:47:00;;;;;;;30.65;21.08;;;5.10;99.90;;;;;;4161484;28;20126;-78
2022/01/23 09:49:02;;;;;;;35.42;22.17;;;5.20;99.90;;;;;;4168909;28;20041;-78
2022/01/23 09:51:04;;;;;;;46.03;27.17;;;5.20;99.90;;;;;;4176522;28;20432;-78
2022/01/23 09:53:07;;;;;;;38.17;23.25;;;5.20;99.90;;;;;;4175195;28;20563;-78
2022/01/23 09:55:11;;;;;;;34.78;22.95;;;5.20;99.90;;;;;;4171845;28;20491;-78
2022/01/23 09:57:15;;;;;;;32.80;22.65;;;5.20;99.90;;;;;;4167344;28;20107;-79
2022/01/23 09:59:18;;;;;;;53.28;29.80;;;5.20;99.90;;;;;;4162339;28;20385;-87
2022/01/23 10:01:23;;;;;;;50.35;28.33;;;5.20;99.90;;;;;;4164006;28;20350;-88
2022/01/23 10:03:26;;;;;;;47.90;29.17;;;5.30;99.90;;;;;;4173514;28;20154;-81
2022/01/23 10:05:29;;;;;;;41.22;26.38;;;5.30;99.90;;;;;;4173290;28;20523;-80
2022/01/23 10:07:38;;;;;;;42.30;26.55;;;5.40;99.90;;;;;;4173096;28;20115;-78
2022/01/23 10:09:40;;;;;;;41.15;25.88;;;5.40;99.90;;;;;;4160311;28;20042;-78
2022/01/23 10:11:44;;;;;;;43.58;27.10;;;5.40;99.90;;;;;;4177898;28;20707;-78
2022/01/23 10:13:46;;;;;;;41.08;26.25;;;5.40;99.90;;;;;;4177939;28;20103;-79
2022/01/23 10:15:48;;;;;;;32.83;23.52;;;5.40;99.90;;;;;;4178000;28;20049;-78
2022/01/23 10:17:50;;;;;;;35.67;23.58;;;5.40;99.90;;;;;;4170709;28;20049;-78
2022/01/23 10:19:53;;;;;;;35.55;22.52;;;5.40;99.90;;;;;;4177854;28;20059;-79
2022/01/23 10:21:55;;;;;;;34.13;22.80;;;5.40;99.90;;;;;;4170400;28;20139;-78
2022/01/23 10:23:57;;;;;;;30.98;22.23;;;5.50;99.90;;;;;;4173831;28;20049;-79
2022/01/23 10:26:01;;;;;;;34.03;21.13;;;5.50;99.90;;;;;;4178391;28;20049;-80
2022/01/23 10:28:18;;;;;;;34.17;23.60;;;5.60;99.90;;;;;;4177526;28;20420;-79
2022/01/23 10:30:25;;;;;;;33.03;22.00;;;5.50;99.90;;;;;;4175416;28;20052;-78
2022/01/23 10:32:27;;;;;;;39.92;25.92;;;5.50;99.90;;;;;;4175534;28;20102;-78
2022/01/23 10:34:55;;;;;;;37.17;25.48;;;5.50;99.90;;;;;;4175996;28;20063;-78
2022/01/23 10:36:57;;;;;;;36.85;23.55;;;5.50;99.90;;;;;;4163356;28;20045;-78
2022/01/23 10:39:04;;;;;;;33.80;22.75;;;5.50;99.90;;;;;;4168759;28;20059;-78
2022/01/23 10:47:55;;;;;;;37.10;26.33;;;5.50;99.90;;;;;;4179152;28;20041;-79
2022/01/23 10:50:00;;;;;;;43.55;27.45;;;5.50;99.90;;;;;;4174170;28;20123;-81
2022/01/23 10:52:02;;;;;;;;;;;5.40;99.90;;;;;;4177915;28;20049;-82
2022/01/23 10:54:20;;;;;;;41.65;25.48;;;5.40;99.90;;;;;;4177801;28;20019;-85
2022/01/23 10:56:23;;;;;;;42.70;26.73;;;5.40;99.90;;;;;;4169535;28;20045;-80
2022/01/23 10:58:28;;;;;;;42.35;27.42;;;5.40;99.90;;;;;;4176710;28;20447;-81
2022/01/23 11:00:39;;;;;;;42.28;27.27;;;5.40;99.90;;;;;;4178518;28;20065;-81
2022/01/23 11:02:42;;;;;;;45.50;27.80;;;5.40;99.90;;;;;;4177291;28;20103;-78
2022/01/23 11:04:55;;;;;;;43.10;28.08;;;5.40;99.90;;;;;;4171053;28;20125;-80
2022/01/23 11:07:05;;;;;;;46.15;27.52;;;5.40;99.90;;;;;;4163794;28;20088;-80
2022/01/23 11:09:10;;;;;;;45.97;28.85;;;5.40;99.90;;;;;;4167181;28;20064;-79
2022/01/23 11:11:12;;;;;;;44.15;28.58;;;5.50;99.90;;;;;;4166306;28;20092;-81
2022/01/23 11:18:13;;;;;;;65.57;35.33;;;5.50;99.90;;;;;;4170112;28;20552;-80
2022/01/23 11:20:29;;;;;;;54.65;31.80;;;5.50;99.90;;;;;;4176737;28;20136;-81
2022/01/23 11:22:34;;;;;;;60.55;33.45;;;5.60;99.90;;;;;;4169142;28;20083;-82
2022/01/23 11:24:41;;;;;;;51.97;30.38;;;5.50;99.90;;;;;;4160429;28;20156;-81
2022/01/23 11:26:43;;;;;;;54.50;31.30;;;5.50;99.90;;;;;;4169435;28;20621;-78
2022/01/23 11:28:47;;;;;;;53.90;32.13;;;5.50;99.90;;;;;;4169352;28;20088;-79
2022/01/23 11:30:49;;;;;;;53.42;31.90;;;5.50;99.90;;;;;;4177193;28;20088;-81
2022/01/23 11:32:51;;;;;;;54.50;34.25;;;5.60;99.90;;;;;;4176098;28;20142;-80
2022/01/23 11:35:03;;;;;;;50.00;31.02;;;5.60;99.90;;;;;;4173905;28;20447;-78
2022/01/23 11:37:05;;;;;;;54.00;31.40;;;5.60;99.90;;;;;;4176563;28;20331;-83
2022/01/23 11:39:20;;;;;;;56.25;32.40;;;5.70;99.90;;;;;;4177143;28;20436;-78
2022/01/23 11:53:49;;;;;;;59.08;32.75;;;5.70;99.90;;;;;;4160808;28;20053;-79
2022/01/23 11:55:37;;;;;;;58.20;34.90;;;5.70;99.90;;;;;;4156202;28;20119;-78
2022/01/23 11:57:42;;;;;;;55.88;32.60;;;5.60;99.90;;;;;;4174389;28;20425;-80
2022/01/23 11:59:47;;;;;;;;;;;5.60;99.90;;;;;;4166833;28;20142;-79
2022/01/23 12:02:11;;;;;;;60.70;33.65;;;5.70;99.90;;;;;;4168056;28;19924;-78
2022/01/23 12:04:21;;;;;;;50.60;30.15;;;5.70;99.90;;;;;;4162529;28;20056;-79
2022/01/23 12:06:23;;;;;;;51.25;30.35;;;5.60;99.90;;;;;;4164985;28;20048;-79
2022/01/23 12:08:33;;;;;;;53.92;31.77;;;5.50;99.90;;;;;;4170007;28;20479;-81
2022/01/23 12:10:52;;;;;;;55.38;31.88;;;5.50;99.90;;;;;;4169931;28;20592;-83
2022/01/23 12:13:44;;;;;;;59.10;32.70;;;5.50;99.90;;;;;;4167345;28;20575;-78
2022/01/23 12:18:21;;;;;;;54.72;31.48;;;5.60;99.90;;;;;;4174521;28;20565;-81
2022/01/23 12:20:34;;;;;;;54.75;30.92;;;5.60;99.90;;;;;;4173354;28;20057;-78
2022/01/23 12:22:42;;;;;;;51.63;30.75;;;5.60;99.90;;;;;;4178388;28;20057;-80
2022/01/23 12:24:49;;;;;;;54.15;31.52;;;5.60;99.90;;;;;;4171159;28;20152;-82
2022/01/23 12:27:12;;;;;;;70.78;39.85;;;5.70;99.90;;;;;;4174441;28;20072;-81
2022/01/23 12:29:24;;;;;;;56.97;32.28;;;5.80;99.90;;;;;;4173374;28;20739;-79
2022/01/23 12:31:36;;;;;;;55.95;31.02;;;5.80;99.90;;;;;;4176603;28;20057;-82
2022/01/23 12:33:47;;;;;;;49.70;30.15;;;5.70;99.90;;;;;;4166704;28;20129;-81
2022/01/23 12:35:55;;;;;;;51.97;29.55;;;5.70;99.90;;;;;;4179541;28;20080;-79
2022/01/23 12:38:00;;;;;;;57.30;31.80;;;5.80;99.90;;;;;;4175179;28;20044;-85
2022/01/23 12:40:34;;;;;;;51.83;30.30;;;5.80;99.90;;;;;;4178676;28;20053;-82
2022/01/23 12:43:09;;;;;;;50.38;30.45;;;5.70;99.90;;;;;;4176008;28;20049;-79
2022/01/23 12:45:49;;;;;;;48.75;30.08;;;5.70;99.90;;;;;;4165203;28;20041;-79
2022/01/23 12:48:44;;;;;;;49.35;30.48;;;5.70;99.90;;;;;;4174886;28;20256;-79
2022/01/23 12:50:46;;;;;;;48.03;29.70;;;5.80;99.90;;;;;;4163400;28;20531;-79
2022/01/23 12:52:50;;;;;;;49.58;30.33;;;5.80;99.90;;;;;;4164858;28;20046;-81
2022/01/23 12:54:59;;;;;;;49.58;28.67;;;5.70;99.90;;;;;;4169523;28;20100;-80
2022/01/23 12:57:09;;;;;;;46.53;30.27;;;5.60;99.90;;;;;;4172150;28;20472;-80
2022/01/23 12:59:21;;;;;;;51.08;30.42;;;5.60;99.90;;;;;;4179916;28;20048;-79
2022/01/23 13:01:26;;;;;;;44.60;28.70;;;5.60;99.90;;;;;;4180520;28;20502;-78
2022/01/23 13:03:29;;;;;;;;;;;5.60;99.90;;;;;;4165944;28;20046;-83
2022/01/23 13:05:31;;;;;;;49.90;29.60;;;5.60;99.90;;;;;;4171482;28;19929;-81
2022/01/23 13:07:42;;;;;;;49.90;30.67;;;5.60;99.90;;;;;;4172750;28;20056;-79
2022/01/23 13:10:02;;;;;;;53.17;32.40;;;5.60;99.90;;;;;;4165794;28;20073;-81
2022/01/23 13:12:26;;;;;;;52.28;30.63;;;5.50;99.90;;;;;;4177617;28;20492;-79
2022/01/23 13:14:57;;;;;;;51.53;33.00;;;5.50;99.90;;;;;;4164968;28;20097;-79
2022/01/23 13:19:44;;;;;;;50.58;30.88;;;5.40;99.90;;;;;;4169850;28;20468;-79
2022/01/23 13:34:24;;;;;;;57.60;34.00;;;5.40;99.90;;;;;;4143267;28;20472;-80
2022/01/23 13:36:26;;;;;;;49.70;31.17;;;5.40;99.90;;;;;;4167320;28;20052;-79
2022/01/23 13:38:33;;;;;;;56.05;32.42;;;5.40;99.90;;;;;;4181745;28;20504;-80
2022/01/23 13:40:39;;;;;;;56.10;31.83;;;5.40;99.90;;;;;;4180563;28;20041;-82
2022/01/23 13:48:02;;;;;;;45.83;29.65;;;5.40;99.90;;;;;;4173201;28;20045;-79
2022/01/23 13:52:42;;;;;;;56.47;32.92;;;5.20;99.90;;;;;;4164428;28;20053;-78
2022/01/23 14:01:46;;;;;;;46.20;28.83;;;5.20;99.90;;;;;;4164763;28;20115;-78
2022/01/23 14:03:48;;;;;;;57.15;32.78;;;5.20;99.90;;;;;;4168336;28;20096;-77
2022/01/23 14:05:51;;;;;;;49.72;29.90;;;5.20;99.90;;;;;;4171919;28;20056;-77
2022/01/23 14:07:58;;;;;;;45.50;28.92;;;5.20;99.90;;;;;;4166379;28;20042;-78
2022/01/23 14:10:11;;;;;;;44.25;28.35;;;5.20;99.90;;;;;;4163206;28;20061;-78
2022/01/23 14:12:16;;;;;;;48.70;28.50;;;5.20;99.90;;;;;;4162955;28;20045;-77
2022/01/23 14:14:26;;;;;;;43.33;27.17;;;5.30;99.90;;;;;;4167893;28;20059;-77
2022/01/23 14:16:28;;;;;;;44.30;27.70;;;5.30;99.90;;;;;;4163553;28;20501;-78